createdAt,value
2023-10-19T00:02:21.016Z,7.60
2023-10-19T00:04:50.800Z,7.63
2023-10-19T00:07:19.764Z,7.58
2023-10-19T00:09:49.373Z,7.61
2023-10-19T00:12:23.296Z,7.55
2023-10-19T00:14:50.823Z,7.52
2023-10-19T00:17:22.177Z,7.57
2023-10-19T00:19:59.193Z,7.57
2023-10-19T00:22:32.168Z,7.55
2023-10-19T00:25:00.343Z,7.52
2023-10-19T00:27:30.169Z,7.59
2023-10-19T00:30:07.275Z,7.66
2023-10-19T00:32:39.894Z,7.66
2023-10-19T00:35:27.936Z,7.66
2023-10-19T00:38:19.012Z,7.68
2023-10-19T00:40:54.227Z,7.69
2023-10-19T00:43:34.058Z,7.66
2023-10-19T00:46:08.340Z,7.59
2023-10-19T00:48:37.492Z,7.53
2023-10-19T00:51:10.686Z,7.57
2023-10-19T00:53:41.298Z,7.61
2023-10-19T00:56:12.004Z,7.61
2023-10-19T00:58:42.700Z,7.61
2023-10-19T01:01:11.668Z,7.60
2023-10-19T01:03:40.651Z,7.58
2023-10-19T01:06:13.357Z,7.54
2023-10-19T01:08:45.720Z,7.61
2023-10-19T01:11:16.764Z,7.64
2023-10-19T01:13:47.847Z,7.60
2023-10-19T01:16:22.347Z,7.61
2023-10-19T01:18:55.777Z,7.59
2023-10-19T01:21:37.402Z,7.62
2023-10-19T01:24:13.424Z,7.62
2023-10-19T01:26:42.217Z,7.59
2023-10-19T01:29:14.913Z,7.57
2023-10-19T01:31:57.295Z,7.49
2023-10-19T01:34:28.034Z,7.42
2023-10-19T01:36:57.292Z,7.47
2023-10-19T01:39:26.808Z,7.47
2023-10-19T01:41:55.156Z,7.41
2023-10-19T01:44:22.675Z,7.30
2023-10-19T01:46:51.051Z,7.35
2023-10-19T01:49:27.368Z,7.38
2023-10-19T01:51:56.836Z,7.42
2023-10-19T01:54:26.331Z,7.43
2023-10-19T01:56:57.761Z,7.42
2023-10-19T01:59:28.610Z,7.34
2023-10-19T02:01:59.075Z,7.32
2023-10-19T02:04:27.339Z,7.28
2023-10-19T02:07:01.562Z,7.24
2023-10-19T02:09:33.703Z,7.30
2023-10-19T02:12:05.793Z,7.25
2023-10-19T02:14:35.901Z,7.22
2023-10-19T02:17:05.240Z,7.20
2023-10-19T02:19:34.190Z,7.23
2023-10-19T02:22:05.434Z,7.27
2023-10-19T02:24:35.330Z,7.29
2023-10-19T02:27:02.755Z,7.32
2023-10-19T02:29:32.232Z,7.34
2023-10-19T02:32:05.121Z,7.36
2023-10-19T02:34:35.942Z,7.31
2023-10-19T02:37:03.637Z,7.28
2023-10-19T02:39:32.415Z,7.21
2023-10-19T02:42:04.149Z,7.20
2023-10-19T02:44:32.938Z,7.25
2023-10-19T02:47:01.532Z,7.15
2023-10-19T02:49:32.206Z,7.17
2023-10-19T02:52:05.044Z,7.20
2023-10-19T02:54:36.319Z,7.18
2023-10-19T02:57:09.009Z,7.12
2023-10-19T02:59:37.222Z,7.13
2023-10-19T03:02:17.566Z,7.12
2023-10-19T03:04:46.546Z,7.13
2023-10-19T03:07:16.892Z,7.15
2023-10-19T03:09:50.350Z,7.08
2023-10-19T03:12:21.051Z,7.03
2023-10-19T03:14:49.497Z,7.05
2023-10-19T03:17:18.647Z,7.05
2023-10-19T03:19:47.360Z,7.03
2023-10-19T03:22:16.302Z,7.10
2023-10-19T03:24:44.895Z,7.06
2023-10-19T03:27:16.489Z,6.98
2023-10-19T03:29:49.370Z,7.03
2023-10-19T03:32:20.181Z,7.03
2023-10-19T03:34:50.910Z,7.10
2023-10-19T03:37:21.444Z,7.14
2023-10-19T03:39:52.663Z,7.15
2023-10-19T03:42:22.305Z,7.24
2023-10-19T03:44:55.016Z,7.32
2023-10-19T03:47:29.238Z,7.37
2023-10-19T03:50:01.131Z,7.38
2023-10-19T03:52:31.775Z,7.39
2023-10-19T03:55:01.907Z,7.34
2023-10-19T03:57:31.701Z,7.37
2023-10-19T04:00:01.733Z,7.36
2023-10-19T04:02:39.645Z,7.32
2023-10-19T04:05:11.571Z,7.33
2023-10-19T04:07:40.304Z,7.25
2023-10-19T04:10:30.979Z,7.28
2023-10-19T04:13:01.737Z,7.31
2023-10-19T04:15:35.014Z,7.33
2023-10-19T04:18:09.739Z,7.30
2023-10-19T04:20:55.696Z,7.30
2023-10-19T04:23:28.399Z,7.28
2023-10-19T04:26:05.069Z,7.33
2023-10-19T04:28:39.638Z,7.32
2023-10-19T04:31:14.850Z,7.34
2023-10-19T04:33:47.073Z,7.26
2023-10-19T04:36:22.558Z,7.22
2023-10-19T04:38:51.013Z,7.20
2023-10-19T04:41:19.758Z,7.13
2023-10-19T04:43:51.428Z,7.20
2023-10-19T04:46:21.602Z,7.20
2023-10-19T04:48:50.800Z,7.18
2023-10-19T04:51:19.569Z,7.19
2023-10-19T04:53:47.968Z,7.17
2023-10-19T04:56:16.712Z,7.11
2023-10-19T04:58:45.447Z,7.11
2023-10-19T05:01:14.065Z,7.16
2023-10-19T05:03:44.304Z,7.11
2023-10-19T05:06:13.743Z,7.10
2023-10-19T05:08:42.132Z,7.18
2023-10-19T05:11:10.561Z,7.14
2023-10-19T05:13:40.138Z,7.10
2023-10-19T05:16:09.861Z,7.09
2023-10-19T05:18:38.342Z,7.08
2023-10-19T05:21:08.222Z,7.10
2023-10-19T05:23:36.901Z,7.06
2023-10-19T05:26:07.923Z,6.90
2023-10-19T05:28:36.585Z,6.87
2023-10-19T05:31:05.520Z,6.81
2023-10-19T05:33:34.274Z,6.73
2023-10-19T05:36:03.848Z,6.64
2023-10-19T05:38:34.157Z,6.65
2023-10-19T05:41:02.742Z,6.61
2023-10-19T05:43:31.736Z,6.61
2023-10-19T05:46:00.299Z,6.54
2023-10-19T05:48:28.850Z,6.47
2023-10-19T05:50:57.743Z,6.40
2023-10-19T05:53:26.128Z,6.38
2023-10-19T05:55:55.864Z,6.35
2023-10-19T05:58:24.662Z,6.38
2023-10-19T06:00:53.653Z,6.40
2023-10-19T06:03:22.158Z,6.46
2023-10-19T06:05:50.581Z,6.53
2023-10-19T06:08:19.016Z,6.63
2023-10-19T06:10:57.576Z,6.71
2023-10-19T06:13:26.245Z,6.82
2023-10-19T06:15:54.785Z,6.96
2023-10-19T06:18:23.744Z,7.02
2023-10-19T06:20:56.234Z,7.15
2023-10-19T06:23:24.600Z,7.23
2023-10-19T06:25:53.560Z,7.32
2023-10-19T06:28:23.465Z,7.40
2023-10-19T06:30:52.125Z,7.53
2023-10-19T06:33:20.927Z,7.64
2023-10-19T06:35:49.346Z,7.69
2023-10-19T06:38:19.781Z,7.71
2023-10-19T06:40:48.781Z,7.76
2023-10-19T06:43:17.976Z,7.84
2023-10-19T06:45:48.374Z,8.00
2023-10-19T06:48:16.961Z,8.11
2023-10-19T06:50:49.672Z,8.22
2023-10-19T06:53:19.866Z,8.22
2023-10-19T06:55:49.058Z,8.31
2023-10-19T06:58:20.964Z,8.33
2023-10-19T07:00:57.726Z,8.42
2023-10-19T07:03:27.060Z,8.57
2023-10-19T07:05:55.711Z,8.77
2023-10-19T07:08:24.986Z,8.87
2023-10-19T07:10:54.807Z,8.88
2023-10-19T07:13:23.946Z,8.91
2023-10-19T07:15:53.924Z,8.92
2023-10-19T07:18:23.008Z,8.92
2023-10-19T07:20:51.841Z,9.09
2023-10-19T07:23:23.369Z,9.19
2023-10-19T07:25:56.039Z,9.31
2023-10-19T07:28:27.481Z,9.44
2023-10-19T07:30:58.299Z,9.46
2023-10-19T07:33:27.673Z,9.49
2023-10-19T07:35:56.749Z,9.43
2023-10-19T07:38:26.760Z,9.49
2023-10-19T07:40:55.421Z,9.43
2023-10-19T07:43:24.833Z,9.48
2023-10-19T07:45:54.527Z,9.60
2023-10-19T07:48:26.069Z,9.67
2023-10-19T07:50:55.549Z,9.81
2023-10-19T07:53:25.852Z,9.88
2023-10-19T07:55:55.279Z,9.83
2023-10-19T07:58:23.650Z,9.80
2023-10-19T08:00:53.667Z,9.66
2023-10-19T08:03:23.574Z,9.61
2023-10-19T08:05:52.103Z,9.57
2023-10-19T08:08:20.490Z,9.67
2023-10-19T08:10:49.352Z,9.89
2023-10-19T08:13:18.154Z,9.96
2023-10-19T08:15:47.212Z,10.04
2023-10-19T08:18:16.171Z,10.11
2023-10-19T08:20:46.744Z,10.35
2023-10-19T08:23:17.758Z,10.48
2023-10-19T08:25:56.189Z,10.70
2023-10-19T08:28:25.855Z,10.83
2023-10-19T08:31:01.637Z,10.82
2023-10-19T08:33:34.755Z,10.82
2023-10-19T08:36:05.282Z,10.87
2023-10-19T08:38:34.534Z,10.91
2023-10-19T08:41:04.593Z,10.93
2023-10-19T08:43:35.071Z,11.13
2023-10-19T08:46:05.026Z,11.11
2023-10-19T08:48:37.845Z,10.99
2023-10-19T08:51:12.924Z,11.04
2023-10-19T08:53:41.933Z,10.96
2023-10-19T08:56:13.285Z,11.02
2023-10-19T08:58:42.632Z,10.99
2023-10-19T09:01:11.357Z,10.93
2023-10-19T09:03:41.914Z,11.00
2023-10-19T09:06:15.873Z,10.95
2023-10-19T09:08:48.065Z,10.84
2023-10-19T09:11:20.628Z,10.66
2023-10-19T09:13:53.199Z,10.59
2023-10-19T09:16:23.745Z,10.49
2023-10-19T09:18:53.747Z,10.22
2023-10-19T09:21:26.289Z,10.13
2023-10-19T09:23:57.013Z,10.16
2023-10-19T09:26:26.714Z,10.20
2023-10-19T09:28:56.283Z,10.22
2023-10-19T09:31:26.096Z,10.26
2023-10-19T09:33:55.593Z,10.20
2023-10-19T09:36:31.147Z,10.16
2023-10-19T09:39:00.071Z,10.08
2023-10-19T09:41:30.564Z,9.96
2023-10-19T09:44:07.722Z,9.90
2023-10-19T09:46:41.320Z,9.84
2023-10-19T09:49:13.111Z,9.94
2023-10-19T09:52:02.477Z,9.97
2023-10-19T09:54:50.630Z,9.93
2023-10-19T09:57:30.025Z,9.91
2023-10-19T10:00:13.096Z,9.97
2023-10-19T10:02:47.166Z,9.98
2023-10-19T10:05:50.105Z,9.95
2023-10-19T10:08:38.470Z,9.92
2023-10-19T10:11:23.400Z,9.89
2023-10-19T10:13:53.484Z,9.89
2023-10-19T10:16:26.283Z,9.89
2023-10-19T10:19:01.995Z,9.95
2023-10-19T10:21:31.970Z,10.03
2023-10-19T10:24:05.418Z,10.11
2023-10-19T10:27:01.261Z,10.20
2023-10-19T10:29:30.328Z,10.19
2023-10-19T10:31:59.876Z,10.21
2023-10-19T10:34:46.919Z,10.29
2023-10-19T10:37:16.343Z,10.37
2023-10-19T10:39:46.799Z,10.39
2023-10-19T10:42:16.903Z,10.53
2023-10-19T10:44:47.280Z,10.57
2023-10-19T10:47:23.078Z,10.65
2023-10-19T10:49:54.156Z,10.68
2023-10-19T10:52:29.018Z,10.67
2023-10-19T10:54:59.615Z,10.68
2023-10-19T10:57:34.444Z,10.81
2023-10-19T11:00:09.621Z,10.95
2023-10-19T11:02:41.447Z,10.89
2023-10-19T11:05:13.397Z,10.92
2023-10-19T11:07:43.257Z,11.02
2023-10-19T11:10:13.174Z,11.10
2023-10-19T11:12:41.650Z,11.21
2023-10-19T11:15:11.940Z,11.18
2023-10-19T11:17:46.929Z,11.34
2023-10-19T11:20:24.888Z,11.42
2023-10-19T11:22:57.178Z,11.46
2023-10-19T11:25:30.393Z,11.58
2023-10-19T11:28:00.652Z,11.82
2023-10-19T11:30:32.627Z,12.02
2023-10-19T11:33:02.467Z,12.52
2023-10-19T11:35:33.593Z,12.84
2023-10-19T11:38:05.233Z,13.33
2023-10-19T11:40:35.209Z,13.62
2023-10-19T11:43:04.251Z,13.72
2023-10-19T11:45:33.083Z,13.52
2023-10-19T11:48:01.665Z,13.29
2023-10-19T11:50:30.151Z,12.99
2023-10-19T11:52:58.567Z,12.72
2023-10-19T11:55:27.027Z,12.42
2023-10-19T11:57:57.209Z,12.23
2023-10-19T12:00:34.868Z,12.04
2023-10-19T12:03:03.509Z,11.94
2023-10-19T12:05:31.974Z,11.97
2023-10-19T12:08:00.433Z,12.04
2023-10-19T12:10:34.337Z,12.14
2023-10-19T12:13:05.125Z,12.21
2023-10-19T12:15:34.638Z,12.29
2023-10-19T12:18:04.043Z,12.15
2023-10-19T12:20:36.787Z,12.12
2023-10-19T12:23:06.882Z,11.86
2023-10-19T12:25:46.537Z,11.67
2023-10-19T12:28:26.045Z,11.72
2023-10-19T12:30:54.738Z,11.67
2023-10-19T12:33:23.909Z,11.61
2023-10-19T12:35:55.167Z,11.70
2023-10-19T12:38:23.689Z,11.53
2023-10-19T12:40:53.521Z,11.53
2023-10-19T12:43:24.156Z,11.48
2023-10-19T12:45:54.976Z,11.63
2023-10-19T12:48:26.672Z,11.88
2023-10-19T12:50:55.822Z,12.24
2023-10-19T12:53:26.045Z,12.43
2023-10-19T12:55:54.731Z,12.44
2023-10-19T12:58:24.739Z,12.58
2023-10-19T13:00:53.179Z,12.83
2023-10-19T13:03:23.093Z,13.03
2023-10-19T13:05:51.664Z,13.49
2023-10-19T13:08:20.469Z,13.69
2023-10-19T13:10:53.411Z,13.75
2023-10-19T13:13:25.248Z,13.46
2023-10-19T13:15:55.262Z,13.30
2023-10-19T13:18:29.301Z,13.34
2023-10-19T13:21:00.114Z,13.43
2023-10-19T13:23:29.521Z,13.60
2023-10-19T13:26:12.828Z,13.41
2023-10-19T13:28:42.341Z,13.41
2023-10-19T13:31:14.803Z,13.31
2023-10-19T13:33:47.302Z,13.38
2023-10-19T13:36:17.168Z,13.50
2023-10-19T13:38:46.290Z,13.59
2023-10-19T13:41:17.931Z,13.70
2023-10-19T13:43:46.513Z,13.73
2023-10-19T13:46:16.494Z,14.03
2023-10-19T13:48:45.481Z,14.24
2023-10-19T13:51:20.578Z,14.10
2023-10-19T13:53:51.133Z,14.05
2023-10-19T13:56:19.949Z,13.92
2023-10-19T13:58:49.107Z,13.58
2023-10-19T14:01:20.065Z,13.49
2023-10-19T14:03:48.556Z,13.28
2023-10-19T14:06:17.976Z,13.10
2023-10-19T14:08:46.457Z,12.92
2023-10-19T14:11:14.854Z,12.80
2023-10-19T14:13:43.993Z,12.65
2023-10-19T14:16:13.009Z,12.50
2023-10-19T14:18:44.840Z,12.60
2023-10-19T14:21:15.968Z,12.56
2023-10-19T14:23:45.882Z,12.44
2023-10-19T14:26:15.033Z,12.48
2023-10-19T14:28:43.959Z,12.44
2023-10-19T14:31:13.459Z,12.27
2023-10-19T14:33:44.680Z,12.09
2023-10-19T14:36:13.633Z,12.06
2023-10-19T14:38:44.536Z,12.05
2023-10-19T14:41:13.188Z,11.98
2023-10-19T14:43:41.630Z,11.95
2023-10-19T14:46:10.112Z,11.87
2023-10-19T14:48:38.521Z,11.82
2023-10-19T14:51:08.660Z,11.73
2023-10-19T14:53:37.348Z,11.70
2023-10-19T14:56:07.328Z,11.72
2023-10-19T14:58:35.808Z,11.73
2023-10-19T15:01:04.383Z,11.73
2023-10-19T15:03:32.830Z,11.77
2023-10-19T15:06:01.427Z,11.85
2023-10-19T15:08:32.937Z,11.83
2023-10-19T15:11:01.556Z,11.77
2023-10-19T15:13:30.782Z,11.76
2023-10-19T15:15:59.172Z,11.73
2023-10-19T15:18:28.504Z,11.73
2023-10-19T15:20:56.986Z,11.71
2023-10-19T15:23:27.151Z,11.70
2023-10-19T15:25:56.968Z,11.62
2023-10-19T15:28:25.392Z,11.53
2023-10-19T15:30:54.405Z,11.49
2023-10-19T15:33:23.010Z,11.50
2023-10-19T15:35:52.831Z,11.40
2023-10-19T15:38:22.865Z,11.31
2023-10-19T15:40:51.423Z,11.23
2023-10-19T15:43:23.993Z,11.17
2023-10-19T15:45:52.902Z,11.09
2023-10-19T15:48:22.591Z,11.04
2023-10-19T15:50:51.024Z,11.03
2023-10-19T15:53:19.517Z,11.03
2023-10-19T15:55:48.281Z,11.03
2023-10-19T15:58:19.475Z,11.05
2023-10-19T16:00:49.313Z,11.04
2023-10-19T16:03:18.184Z,10.95
2023-10-19T16:05:46.763Z,10.92
2023-10-19T16:08:15.268Z,10.94
2023-10-19T16:10:44.007Z,10.95
2023-10-19T16:13:14.287Z,10.94
2023-10-19T16:15:42.907Z,10.96
2023-10-19T16:18:13.309Z,10.87
2023-10-19T16:20:41.729Z,10.81
2023-10-19T16:23:10.202Z,10.76
2023-10-19T16:25:38.606Z,10.69
2023-10-19T16:28:07.420Z,10.60
2023-10-19T16:30:36.248Z,10.51
2023-10-19T16:33:05.645Z,10.44
2023-10-19T16:35:35.487Z,10.42
2023-10-19T16:38:05.255Z,10.44
2023-10-19T16:40:33.655Z,10.38
2023-10-19T16:43:03.015Z,10.37
2023-10-19T16:45:31.470Z,10.32
2023-10-19T16:47:59.968Z,10.26
2023-10-19T16:50:29.798Z,10.21
2023-10-19T16:52:59.717Z,10.17
2023-10-19T16:55:28.371Z,10.18
2023-10-19T16:58:00.249Z,10.17
2023-10-19T17:00:35.032Z,10.19
2023-10-19T17:03:03.662Z,10.18
2023-10-19T17:05:32.261Z,10.17
2023-10-19T17:08:02.301Z,10.19
2023-10-19T17:10:31.010Z,10.22
2023-10-19T17:12:59.553Z,10.23
2023-10-19T17:15:28.049Z,10.30
2023-10-19T17:17:56.497Z,10.33
2023-10-19T17:20:26.170Z,10.35
2023-10-19T17:22:55.093Z,10.37
2023-10-19T17:25:25.353Z,10.39
2023-10-19T17:27:54.077Z,10.32
2023-10-19T17:30:22.676Z,10.27
2023-10-19T17:32:54.394Z,10.23
2023-10-19T17:35:25.070Z,10.23
2023-10-19T17:37:53.596Z,10.19
2023-10-19T17:40:22.137Z,10.20
2023-10-19T17:42:52.769Z,10.22
2023-10-19T17:45:21.312Z,10.22
2023-10-19T17:47:51.502Z,10.27
2023-10-19T17:50:21.160Z,10.28
2023-10-19T17:52:50.205Z,10.27
2023-10-19T17:55:21.701Z,10.27
2023-10-19T17:57:54.220Z,10.30
2023-10-19T18:00:22.825Z,10.25
2023-10-19T18:02:52.699Z,10.24
2023-10-19T18:05:22.066Z,10.21
2023-10-19T18:07:53.920Z,10.16
2023-10-19T18:10:29.765Z,10.13
2023-10-19T18:12:59.888Z,10.05
2023-10-19T18:15:28.749Z,9.98
2023-10-19T18:17:57.211Z,9.89
2023-10-19T18:20:25.695Z,9.90
2023-10-19T18:22:54.165Z,9.90
2023-10-19T18:25:24.844Z,9.90
2023-10-19T18:27:53.288Z,9.88
2023-10-19T18:30:23.613Z,9.88
2023-10-19T18:32:53.275Z,9.87
2023-10-19T18:35:21.875Z,9.90
2023-10-19T18:37:50.597Z,9.94
2023-10-19T18:40:21.521Z,9.91
2023-10-19T18:42:49.884Z,9.95
2023-10-19T18:45:19.325Z,9.96
2023-10-19T18:47:49.597Z,10.03
2023-10-19T18:50:33.675Z,10.07
2023-10-19T18:53:04.865Z,10.10
2023-10-19T18:55:33.841Z,10.17
2023-10-19T18:58:03.922Z,10.12
2023-10-19T19:00:34.233Z,10.07
2023-10-19T19:03:04.742Z,10.07
2023-10-19T19:05:34.277Z,10.03
2023-10-19T19:08:02.809Z,10.01
2023-10-19T19:10:34.411Z,9.98
2023-10-19T19:13:03.370Z,9.99
2023-10-19T19:15:32.985Z,10.01
2023-10-19T19:18:02.429Z,10.09
2023-10-19T19:20:32.433Z,10.06
2023-10-19T19:23:00.888Z,10.06
2023-10-19T19:25:29.294Z,9.99
2023-10-19T19:27:59.444Z,9.91
2023-10-19T19:30:28.435Z,9.87
2023-10-19T19:32:56.887Z,9.84
2023-10-19T19:35:25.470Z,9.79
2023-10-19T19:37:56.690Z,9.69
2023-10-19T19:40:26.372Z,9.63
2023-10-19T19:42:55.234Z,9.59
2023-10-19T19:45:24.150Z,9.58
2023-10-19T19:47:54.453Z,9.62
2023-10-19T19:50:23.556Z,9.65
2023-10-19T19:52:53.366Z,9.65
2023-10-19T19:55:23.671Z,9.64
2023-10-19T19:57:52.495Z,9.59
2023-10-19T20:00:23.544Z,9.52
2023-10-19T20:02:52.710Z,9.43
2023-10-19T20:05:22.792Z,9.34
2023-10-19T20:07:52.063Z,9.29
2023-10-19T20:10:20.697Z,9.40
2023-10-19T20:12:50.553Z,9.50
2023-10-19T20:15:19.217Z,9.52
2023-10-19T20:17:48.039Z,9.59
2023-10-19T20:20:18.231Z,9.76
2023-10-19T20:22:47.072Z,9.76
2023-10-19T20:25:16.125Z,9.77
2023-10-19T20:27:45.594Z,9.79
2023-10-19T20:30:17.253Z,9.82
2023-10-19T20:32:47.329Z,9.84
2023-10-19T20:35:18.890Z,9.84
2023-10-19T20:37:47.970Z,9.81
2023-10-19T20:40:22.472Z,9.80
2023-10-19T20:42:54.370Z,9.80
2023-10-19T20:45:27.065Z,9.83
2023-10-19T20:47:57.572Z,9.88
2023-10-19T20:50:28.800Z,9.96
2023-10-19T20:53:00.861Z,9.95
2023-10-19T20:55:29.825Z,9.92
2023-10-19T20:57:58.302Z,9.93
2023-10-19T21:00:28.413Z,9.94
2023-10-19T21:02:56.982Z,9.96
2023-10-19T21:05:26.419Z,9.96
2023-10-19T21:07:56.757Z,9.93
2023-10-19T21:10:25.424Z,9.89
2023-10-19T21:12:53.920Z,9.88
2023-10-19T21:15:22.590Z,9.85
2023-10-19T21:17:54.380Z,9.81
2023-10-19T21:20:23.385Z,9.79
2023-10-19T21:22:54.129Z,9.77
2023-10-19T21:25:25.658Z,9.74
2023-10-19T21:27:55.799Z,9.74
2023-10-19T21:30:24.436Z,9.72
2023-10-19T21:32:54.280Z,9.72
2023-10-19T21:35:22.898Z,9.70
2023-10-19T21:37:52.138Z,9.67
2023-10-19T21:40:20.775Z,9.62
2023-10-19T21:42:49.088Z,9.63
2023-10-19T21:45:17.641Z,9.62
2023-10-19T21:47:46.300Z,9.64
2023-10-19T21:50:16.539Z,9.63
2023-10-19T21:52:45.023Z,9.68
2023-10-19T21:55:13.631Z,9.66
2023-10-19T21:57:42.814Z,9.67
2023-10-19T22:00:16.352Z,9.67
2023-10-19T22:05:25.658Z,9.64
2023-10-19T22:07:54.769Z,9.62
2023-10-19T22:10:24.480Z,9.62
2023-10-19T22:12:53.610Z,9.62
2023-10-19T22:15:22.643Z,9.60
2023-10-19T22:17:51.952Z,9.61
2023-10-19T22:20:22.400Z,9.61
2023-10-19T22:22:51.483Z,9.62
2023-10-19T22:25:22.434Z,9.62
2023-10-19T22:27:53.429Z,9.65
2023-10-19T22:30:23.293Z,9.66
2023-10-19T22:32:52.529Z,9.66
2023-10-19T22:35:22.410Z,9.59
2023-10-19T22:37:51.871Z,9.56
2023-10-19T22:40:21.017Z,9.51
2023-10-19T22:42:49.801Z,9.48
2023-10-19T22:45:19.877Z,9.44
2023-10-19T22:47:48.794Z,9.36
2023-10-19T22:50:18.802Z,9.30
2023-10-19T22:52:48.805Z,9.21
2023-10-19T22:55:19.235Z,9.11
2023-10-19T22:57:52.526Z,9.02
2023-10-19T23:00:21.444Z,9.03
2023-10-19T23:02:50.976Z,9.05
2023-10-19T23:05:20.144Z,9.05
2023-10-19T23:07:52.564Z,9.04
2023-10-19T23:10:22.673Z,9.06
2023-10-19T23:12:52.350Z,9.11
2023-10-19T23:15:32.299Z,9.11
2023-10-19T23:18:01.532Z,9.09
2023-10-19T23:20:31.343Z,9.04
2023-10-19T23:23:05.299Z,9.03
2023-10-19T23:25:35.454Z,8.99
2023-10-19T23:28:06.401Z,8.96
2023-10-19T23:30:36.748Z,8.97
2023-10-19T23:33:08.643Z,8.96
2023-10-19T23:35:37.786Z,9.01
2023-10-19T23:38:08.719Z,9.03
2023-10-19T23:40:37.327Z,9.06
2023-10-19T23:43:07.512Z,9.06
2023-10-19T23:45:40.098Z,9.06
2023-10-19T23:48:12.121Z,9.05
2023-10-19T23:50:40.829Z,9.02
2023-10-19T23:53:11.684Z,8.97
2023-10-19T23:55:41.964Z,8.98
2023-10-19T23:58:10.664Z,9.06
